Wetterdaten: Woche 30.03.26 - 05.04.26 (KW14)
Datum Zeit Temp. Aussen Temp. o. S. Temp +5cm Feuchte Auss Luftdruck Regen Sonnenschein Solar Windböen Empfang
30.03.2026 00:00 6,1 °C 4,8 °C 1,2 °C 89 % 1019,3 hPa 1,9 l/m² 0,00 h 0 W/m² 30,7 km/h (5 Bft) 96,23 %
30.03.2026 01:00 5,8 °C 4,7 °C 1,1 °C 94 % 1017,8 hPa 0,2 l/m² 0,00 h 0 W/m² 33,5 km/h (5 Bft) 98,23 %
30.03.2026 02:00 6,2 °C 5,2 °C 1,6 °C 95 % 1015,8 hPa 0,2 l/m² 0,00 h 0 W/m² 27,5 km/h (4 Bft) 97,91 %
30.03.2026 03:00 6,7 °C 6,0 °C 2,0 °C 96 % 1014,2 hPa 1,0 l/m² 0,00 h 0 W/m² 23,2 km/h (4 Bft) 94,74 %
30.03.2026 04:00 5,4 °C 4,2 °C 0,6 °C 94 % 1014,9 hPa 2,4 l/m² 0,00 h 0 W/m² 31,5 km/h (5 Bft) 98,69 %
30.03.2026 05:00 4,6 °C 3,7 °C 0,0 °C 95 % 1014,8 hPa 0,0 l/m² 0,00 h 0 W/m² 11,7 km/h (2 Bft) 97,15 %
30.03.2026 06:00 4,6 °C 4,0 °C 0,0 °C 95 % 1015,3 hPa 0,0 l/m² 0,00 h 0 W/m² 15,6 km/h (3 Bft) 96,93 %
30.03.2026 07:00 4,5 °C 4,0 °C -0,3 °C 94 % 1015,8 hPa 0,2 l/m² 0,07 h 19 W/m² 17,2 km/h (3 Bft) 97,51 %
30.03.2026 08:00 5,0 °C 4,8 °C 0,2 °C 93 % 1016,3 hPa 0,5 l/m² 0,33 h 66 W/m² 19,9 km/h (4 Bft) 98,28 %
30.03.2026 09:00 5,6 °C 5,9 °C 1,2 °C 94 % 1016,6 hPa 0,0 l/m² 0,30 h 147 W/m² 10,9 km/h (2 Bft) 95,14 %
30.03.2026 10:00 7,4 °C 9,9 °C 4,3 °C 87 % 1017,0 hPa 0,0 l/m² 0,53 h 261 W/m² 24,7 km/h (4 Bft) 96,72 %
30.03.2026 11:00 8,6 °C 11,1 °C 6,0 °C 78 % 1017,5 hPa 0,0 l/m² 0,43 h 329 W/m² 27,5 km/h (4 Bft) 97,41 %
30.03.2026 12:00 10,5 °C 17,0 °C 11,6 °C 69 % 1017,6 hPa 0,0 l/m² 0,93 h 674 W/m² 27,2 km/h (4 Bft) 96,94 %
30.03.2026 13:00 12,0 °C 17,8 °C 10,5 °C 61 % 1017,4 hPa 0,0 l/m² 0,80 h 700 W/m² 25,3 km/h (4 Bft) 99,31 %
30.03.2026 14:00 10,7 °C 14,2 °C 7,2 °C 66 % 1017,6 hPa 0,0 l/m² 0,53 h 429 W/m² 28,1 km/h (4 Bft) 98,38 %
30.03.2026 15:00 11,6 °C 16,3 °C 7,7 °C 68 % 1017,7 hPa 0,2 l/m² 0,90 h 621 W/m² 27,0 km/h (4 Bft) 96,10 %
30.03.2026 16:00 8,8 °C 11,1 °C 5,1 °C 78 % 1018,3 hPa 0,2 l/m² 0,53 h 298 W/m² 16,7 km/h (3 Bft) 96,91 %
30.03.2026 17:00 8,8 °C 10,8 °C 4,7 °C 78 % 1018,8 hPa 0,5 l/m² 0,70 h 249 W/m² 18,8 km/h (3 Bft) 99,81 %
30.03.2026 18:00 8,9 °C 9,2 °C 4,6 °C 77 % 1019,5 hPa 0,2 l/m² 0,47 h 101 W/m² 13,3 km/h (3 Bft) 96,61 %
30.03.2026 19:00 7,5 °C 6,9 °C 3,2 °C 78 % 1020,4 hPa 0,0 l/m² 0,00 h 15 W/m² 17,7 km/h (3 Bft) 97,50 %
30.03.2026 20:00 6,7 °C 5,7 °C 2,3 °C 81 % 1021,6 hPa 0,0 l/m² 0,00 h 3 W/m² 13,1 km/h (3 Bft) 96,22 %
30.03.2026 21:00 5,7 °C 4,7 °C 1,4 °C 84 % 1022,6 hPa 0,0 l/m² 0,00 h 0 W/m² 7,1 km/h (2 Bft) 97,04 %
30.03.2026 22:00 5,3 °C 4,5 °C 1,1 °C 88 % 1023,5 hPa 0,2 l/m² 0,00 h 0 W/m² 7,9 km/h (2 Bft) 97,10 %
30.03.2026 23:00 4,7 °C 3,4 °C 0,4 °C 89 % 1024,2 hPa 0,0 l/m² 0,00 h 0 W/m² 3,4 km/h (1 Bft) 97,75 %
31.03.2026 00:00 3,8 °C 2,8 °C -0,4 °C 92 % 1024,7 hPa 0,0 l/m² 0,00 h 0 W/m² 1,8 km/h (1 Bft) 99,04 %
31.03.2026 01:00 3,4 °C 2,4 °C -0,7 °C 93 % 1025,2 hPa 0,0 l/m² 0,00 h 0 W/m² 3,4 km/h (1 Bft) 96,31 %
31.03.2026 02:00 2,9 °C 2,0 °C -1,2 °C 94 % 1025,6 hPa 0,0 l/m² 0,00 h 0 W/m² 2,0 km/h (1 Bft) 97,32 %
31.03.2026 03:00 2,5 °C 1,5 °C -1,8 °C 94 % 1025,9 hPa 0,0 l/m² 0,00 h 0 W/m² 0,7 km/h (0 Bft) 98,44 %
31.03.2026 04:00 2,1 °C 1,1 °C -2,1 °C 94 % 1026,2 hPa 0,0 l/m² 0,00 h 0 W/m² 1,0 km/h (0 Bft) 98,15 %
31.03.2026 05:00 1,8 °C 0,7 °C -2,5 °C 95 % 1026,5 hPa 0,0 l/m² 0,00 h 0 W/m² 0,2 km/h (0 Bft) 95,30 %
31.03.2026 06:00 1,7 °C 0,8 °C -2,4 °C 95 % 1026,8 hPa 0,0 l/m² 0,00 h 0 W/m² 0,9 km/h (0 Bft) 97,75 %
31.03.2026 07:00 2,0 °C 1,5 °C -1,9 °C 96 % 1027,2 hPa 0,0 l/m² 0,00 h 11 W/m² 2,2 km/h (1 Bft) 97,73 %
31.03.2026 08:00 3,2 °C 3,3 °C -0,2 °C 96 % 1027,5 hPa 0,0 l/m² 0,00 h 65 W/m² 4,2 km/h (1 Bft) 96,52 %
31.03.2026 09:00 4,4 °C 4,9 °C 1,1 °C 96 % 1027,8 hPa 0,0 l/m² 0,00 h 103 W/m² 5,2 km/h (1 Bft) 96,91 %
31.03.2026 10:00 5,9 °C 6,5 °C 2,6 °C 94 % 1028,3 hPa 0,0 l/m² 0,00 h 162 W/m² 7,4 km/h (2 Bft) 97,60 %
31.03.2026 11:00 7,2 °C 8,3 °C 4,0 °C 91 % 1028,6 hPa 0,0 l/m² 0,07 h 253 W/m² 10,3 km/h (2 Bft) 97,08 %
31.03.2026 12:00 8,9 °C 11,0 °C 6,2 °C 85 % 1028,7 hPa 0,0 l/m² 0,77 h 352 W/m² 10,3 km/h (2 Bft) 98,38 %
31.03.2026 13:00 10,7 °C 13,9 °C 8,2 °C 78 % 1028,6 hPa 0,0 l/m² 0,93 h 424 W/m² 13,1 km/h (3 Bft) 97,58 %
31.03.2026 14:00 10,6 °C 11,4 °C 7,1 °C 77 % 1028,3 hPa 0,0 l/m² 0,07 h 252 W/m² 13,9 km/h (3 Bft) 96,44 %
31.03.2026 15:00 11,6 °C 14,0 °C 7,9 °C 70 % 1028,0 hPa 0,0 l/m² 0,33 h 312 W/m² 12,4 km/h (3 Bft) 97,56 %
31.03.2026 16:00 10,6 °C 11,4 °C 6,3 °C 76 % 1027,8 hPa 0,2 l/m² 0,10 h 177 W/m² 12,8 km/h (3 Bft) 97,77 %
31.03.2026 17:00 10,4 °C 10,4 °C 6,0 °C 78 % 1027,7 hPa 0,0 l/m² 0,00 h 98 W/m² 7,3 km/h (2 Bft) 97,42 %
31.03.2026 18:00 10,7 °C 11,1 °C 6,4 °C 77 % 1027,4 hPa 0,0 l/m² 0,55 h 137 W/m² 11,2 km/h (2 Bft) 97,27 %
31.03.2026 19:00 10,1 °C 9,2 °C 5,4 °C 69 % 1027,5 hPa 0,0 l/m² 0,03 h 27 W/m² 11,4 km/h (2 Bft) 97,41 %
31.03.2026 20:00 9,1 °C 7,6 °C 4,0 °C 72 % 1027,8 hPa 0,0 l/m² 0,00 h 4 W/m² 4,5 km/h (1 Bft) 96,96 %
31.03.2026 21:00 7,9 °C 6,2 °C 2,7 °C 76 % 1028,4 hPa 0,0 l/m² 0,00 h 0 W/m² 2,0 km/h (1 Bft) 98,09 %
31.03.2026 22:00 7,7 °C 7,0 °C 3,3 °C 76 % 1028,7 hPa 0,0 l/m² 0,00 h 0 W/m² 6,4 km/h (2 Bft) 97,41 %
31.03.2026 23:00 7,4 °C 5,7 °C 2,3 °C 76 % 1028,5 hPa 0,0 l/m² 0,00 h 0 W/m² 1,2 km/h (1 Bft) 96,38 %
01.04.2026 00:00 6,3 °C 3,8 °C 0,5 °C 78 % 1028,3 hPa 0,0 l/m² 0,00 h 0 W/m² 0,0 km/h (0 Bft) 94,59 %
01.04.2026 01:00 4,8 °C 2,8 °C -0,5 °C 83 % 1028,5 hPa 0,0 l/m² 0,00 h 0 W/m² 0,0 km/h (0 Bft) 99,71 %
01.04.2026 02:00 4,0 °C 3,1 °C -0,1 °C 87 % 1028,4 hPa 0,0 l/m² 0,00 h 0 W/m² 0,5 km/h (0 Bft) 96,05 %
01.04.2026 03:00 3,7 °C 2,2 °C -0,9 °C 88 % 1027,9 hPa 0,0 l/m² 0,00 h 0 W/m² 0,3 km/h (0 Bft) 99,93 %
01.04.2026 04:00 2,9 °C 1,4 °C -1,7 °C 88 % 1027,4 hPa 0,0 l/m² 0,00 h 0 W/m² 0,0 km/h (0 Bft) 94,74 %
01.04.2026 05:00 2,1 °C 0,7 °C -2,2 °C 89 % 1027,2 hPa 0,0 l/m² 0,00 h 0 W/m² 0,0 km/h (0 Bft) 99,42 %
01.04.2026 06:00 1,4 °C 0,1 °C -2,7 °C 89 % 1027,1 hPa 0,0 l/m² 0,00 h 0 W/m² 0,0 km/h (0 Bft) 99,78 %
01.04.2026 07:00 0,7 °C 0,1 °C -2,8 °C 90 % 1027,2 hPa 0,0 l/m² 0,00 h 12 W/m² 0,0 km/h (0 Bft) 95,25 %
01.04.2026 08:00 1,2 °C 1,6 °C -1,8 °C 92 % 1027,3 hPa 0,0 l/m² 0,00 h 32 W/m² 0,3 km/h (0 Bft) 98,39 %
01.04.2026 09:00 3,8 °C 6,1 °C 0,7 °C 94 % 1027,2 hPa 0,0 l/m² 0,23 h 202 W/m² 5,3 km/h (1 Bft) 99,42 %
01.04.2026 10:00 8,0 °C 14,5 °C 7,3 °C 88 % 1027,0 hPa 0,0 l/m² 0,30 h 344 W/m² 13,2 km/h (3 Bft) 98,25 %
01.04.2026 11:00 10,1 °C 15,6 °C 8,7 °C 74 % 1026,9 hPa 0,0 l/m² 0,37 h 506 W/m² 11,6 km/h (2 Bft) 98,98 %
01.04.2026 12:00 12,2 °C 21,9 °C 14,7 °C 64 % 1026,4 hPa 0,0 l/m² 0,40 h 727 W/m² 14,2 km/h (3 Bft) 97,59 %
01.04.2026 13:00 12,8 °C 21,2 °C 11,7 °C 60 % 1025,8 hPa 0,0 l/m² 0,33 h 695 W/m² 16,6 km/h (3 Bft) 98,98 %
01.04.2026 14:00 14,1 °C 22,8 °C 9,7 °C 57 % 1025,0 hPa 0,0 l/m² 0,40 h 740 W/m² 15,6 km/h (3 Bft) 99,85 %
01.04.2026 15:00 14,9 °C 21,9 °C 10,5 °C 52 % 1024,2 hPa 0,0 l/m² 0,40 h 669 W/m² 15,3 km/h (3 Bft) 99,71 %
01.04.2026 16:00 15,2 °C 19,5 °C 10,9 °C 50 % 1023,2 hPa 0,0 l/m² 0,57 h 535 W/m² 15,7 km/h (3 Bft) 97,42 %
01.04.2026 17:00 15,0 °C 18,4 °C 10,6 °C 49 % 1022,7 hPa 0,0 l/m² 1,00 h 395 W/m² 14,2 km/h (3 Bft) 97,27 %
01.04.2026 18:00 14,3 °C 15,3 °C 9,6 °C 49 % 1022,2 hPa 0,0 l/m² 1,00 h 203 W/m² 13,3 km/h (3 Bft) 98,22 %
01.04.2026 19:00 12,8 °C 11,4 °C 7,9 °C 51 % 1021,9 hPa 0,0 l/m² 0,00 h 20 W/m² 9,3 km/h (2 Bft) 96,80 %
01.04.2026 20:00 11,0 °C 8,9 °C 5,3 °C 58 % 1022,0 hPa 0,0 l/m² 0,00 h 6 W/m² 2,3 km/h (1 Bft) 98,85 %
01.04.2026 21:00 9,1 °C 6,5 °C 2,7 °C 66 % 1021,8 hPa 0,0 l/m² 0,00 h 0 W/m² 0,2 km/h (0 Bft) 95,90 %
01.04.2026 22:00 7,7 °C 6,4 °C 2,7 °C 69 % 1021,5 hPa 0,0 l/m² 0,00 h 0 W/m² 1,4 km/h (1 Bft) 98,07 %
01.04.2026 23:00 7,0 °C 5,6 °C 1,9 °C 71 % 1020,9 hPa 0,0 l/m² 0,00 h 0 W/m² 0,7 km/h (0 Bft) 96,48 %
02.04.2026 00:00 6,2 °C 5,3 °C 2,1 °C 74 % 1020,6 hPa 0,0 l/m² 0,00 h 0 W/m² 6,2 km/h (2 Bft) 96,02 %
02.04.2026 01:00 5,7 °C 4,8 °C 1,6 °C 76 % 1020,1 hPa 0,0 l/m² 0,00 h 0 W/m² 10,2 km/h (2 Bft) 96,63 %
02.04.2026 02:00 5,0 °C 3,8 °C 0,8 °C 78 % 1019,6 hPa 0,0 l/m² 0,00 h 0 W/m² 4,8 km/h (1 Bft) 95,73 %
02.04.2026 03:00 4,2 °C 3,1 °C 0,1 °C 80 % 1019,1 hPa 0,0 l/m² 0,00 h 0 W/m² 6,8 km/h (2 Bft) 97,82 %
02.04.2026 04:00 3,5 °C 2,5 °C -0,5 °C 82 % 1018,5 hPa 0,0 l/m² 0,00 h 0 W/m² 4,1 km/h (1 Bft) 95,86 %
02.04.2026 05:00 3,0 °C 1,9 °C -1,0 °C 84 % 1018,1 hPa 0,0 l/m² 0,00 h 0 W/m² 1,8 km/h (1 Bft) 95,93 %
02.04.2026 06:00 2,5 °C 1,7 °C -1,2 °C 86 % 1017,7 hPa 0,0 l/m² 0,00 h 0 W/m² 6,0 km/h (2 Bft) 96,85 %
02.04.2026 07:00 2,3 °C 1,8 °C -1,3 °C 87 % 1017,4 hPa 0,0 l/m² 0,07 h 21 W/m² 4,8 km/h (1 Bft) 95,94 %
02.04.2026 08:00 3,1 °C 3,5 °C 0,0 °C 89 % 1017,5 hPa 0,0 l/m² 0,00 h 68 W/m² 6,9 km/h (2 Bft) 95,12 %
02.04.2026 09:00 5,6 °C 7,3 °C 2,6 °C 87 % 1017,5 hPa 0,0 l/m² 0,63 h 237 W/m² 9,1 km/h (2 Bft) 98,61 %
02.04.2026 10:00 8,0 °C 8,0 °C 4,0 °C 82 % 1017,6 hPa 0,0 l/m² 0,00 h 84 W/m² 7,4 km/h (2 Bft) 98,16 %
02.04.2026 11:00 8,9 °C 8,6 °C 4,6 °C 87 % 1017,8 hPa 0,0 l/m² 0,00 h 77 W/m² 5,3 km/h (1 Bft) 97,57 %
02.04.2026 12:00 9,2 °C 9,1 °C 5,0 °C 88 % 1017,8 hPa 0,0 l/m² 0,00 h 106 W/m² 12,4 km/h (3 Bft) 99,30 %
02.04.2026 13:00 9,6 °C 10,0 °C 5,7 °C 88 % 1017,6 hPa 0,0 l/m² 0,00 h 166 W/m² 12,1 km/h (2 Bft) 99,71 %
02.04.2026 14:00 10,5 °C 11,4 °C 6,9 °C 86 % 1017,6 hPa 0,0 l/m² 0,00 h 235 W/m² 11,6 km/h (2 Bft) 100,00 %
02.04.2026 15:00 11,4 °C 11,9 °C 7,4 °C 83 % 1017,1 hPa 0,0 l/m² 0,00 h 159 W/m² 8,9 km/h (2 Bft) 97,35 %
02.04.2026 16:00 11,3 °C 10,7 °C 6,5 °C 85 % 1016,8 hPa 0,7 l/m² 0,00 h 64 W/m² 5,5 km/h (1 Bft) 98,94 %
02.04.2026 17:00 10,6 °C 9,3 °C 5,0 °C 91 % 1016,8 hPa 0,5 l/m² 0,00 h 30 W/m² 3,9 km/h (1 Bft) 96,88 %
02.04.2026 18:00 9,5 °C 8,6 °C 4,5 °C 94 % 1017,2 hPa 0,2 l/m² 0,00 h 26 W/m² 15,6 km/h (3 Bft) 97,16 %
02.04.2026 19:00 8,9 °C 8,3 °C 4,1 °C 95 % 1017,7 hPa 0,0 l/m² 0,00 h 25 W/m² 9,7 km/h (2 Bft) 96,79 %
02.04.2026 20:00 8,3 °C 7,4 °C 3,4 °C 95 % 1018,5 hPa 0,2 l/m² 0,00 h 0 W/m² 12,1 km/h (2 Bft) 98,42 %
02.04.2026 21:00 7,3 °C 6,6 °C 2,5 °C 93 % 1019,0 hPa 0,0 l/m² 0,00 h 0 W/m² 11,3 km/h (2 Bft) 95,77 %
02.04.2026 22:00 6,6 °C 5,7 °C 2,3 °C 91 % 1019,3 hPa 0,0 l/m² 0,00 h 0 W/m² 5,7 km/h (1 Bft) 97,92 %
02.04.2026 23:00 5,9 °C 4,6 °C 1,4 °C 91 % 1019,4 hPa 0,0 l/m² 0,00 h 0 W/m² 0,6 km/h (0 Bft) 98,56 %
03.04.2026 00:00 5,5 °C 4,5 °C 1,3 °C 92 % 1019,4 hPa 0,0 l/m² 0,00 h 0 W/m² 0,7 km/h (0 Bft) 97,68 %
03.04.2026 01:00 5,4 °C 5,0 °C 1,7 °C 93 % 1019,2 hPa 0,0 l/m² 0,00 h 0 W/m² 0,0 km/h (0 Bft) 96,23 %
03.04.2026 02:00 5,3 °C 5,0 °C 1,7 °C 93 % 1019,0 hPa 0,0 l/m² 0,00 h 0 W/m² 0,0 km/h (0 Bft) 98,80 %
03.04.2026 03:00 5,2 °C 4,6 °C 1,3 °C 93 % 1018,8 hPa 0,0 l/m² 0,00 h 0 W/m² 0,0 km/h (0 Bft) 97,22 %
03.04.2026 04:00 5,1 °C 4,4 °C 1,1 °C 92 % 1018,7 hPa 0,0 l/m² 0,00 h 0 W/m² 0,0 km/h (0 Bft) 95,98 %
03.04.2026 05:00 5,1 °C 4,2 °C 1,1 °C 92 % 1018,4 hPa 0,0 l/m² 0,00 h 0 W/m² 0,0 km/h (0 Bft) 94,65 %
03.04.2026 06:00 5,0 °C 4,0 °C 0,8 °C 93 % 1018,4 hPa 0,0 l/m² 0,00 h 0 W/m² 0,0 km/h (0 Bft) 98,72 %
03.04.2026 07:00 4,9 °C 4,3 °C 1,0 °C 94 % 1018,4 hPa 0,0 l/m² 0,00 h 15 W/m² 0,0 km/h (0 Bft) 96,95 %
03.04.2026 08:00 5,2 °C 5,1 °C 1,7 °C 95 % 1018,4 hPa 0,0 l/m² 0,00 h 57 W/m² 2,4 km/h (1 Bft) 97,66 %
03.04.2026 09:00 6,1 °C 6,9 °C 2,9 °C 94 % 1018,7 hPa 0,0 l/m² 0,00 h 140 W/m² 13,7 km/h (3 Bft) 99,93 %
03.04.2026 10:00 7,1 °C 7,6 °C 3,8 °C 85 % 1018,8 hPa 0,0 l/m² 0,00 h 140 W/m² 15,3 km/h (3 Bft) 99,34 %
03.04.2026 11:00 8,1 °C 9,0 °C 4,8 °C 77 % 1018,2 hPa 0,0 l/m² 0,03 h 256 W/m² 20,3 km/h (4 Bft) 99,71 %
03.04.2026 12:00 9,2 °C 10,5 °C 6,3 °C 72 % 1017,4 hPa 0,0 l/m² 0,53 h 337 W/m² 24,9 km/h (4 Bft) 97,70 %
03.04.2026 13:00 10,9 °C 14,9 °C 9,1 °C 68 % 1017,1 hPa 0,0 l/m² 1,00 h 537 W/m² 28,1 km/h (4 Bft) 95,58 %
03.04.2026 14:00 12,3 °C 15,9 °C 9,2 °C 63 % 1016,3 hPa 0,0 l/m² 1,00 h 544 W/m² 27,9 km/h (4 Bft) 97,73 %
03.04.2026 15:00 13,8 °C 18,3 °C 9,8 °C 59 % 1015,5 hPa 0,0 l/m² 0,97 h 599 W/m² 25,8 km/h (4 Bft) 98,88 %
03.04.2026 16:00 13,9 °C 14,9 °C 10,1 °C 60 % 1014,9 hPa 0,0 l/m² 0,90 h 301 W/m² 24,8 km/h (4 Bft) 97,02 %
03.04.2026 17:00 13,7 °C 13,6 °C 9,5 °C 64 % 1014,3 hPa 0,0 l/m² 0,13 h 148 W/m² 26,0 km/h (4 Bft) 97,27 %
03.04.2026 18:00 13,3 °C 12,8 °C 8,9 °C 69 % 1014,0 hPa 0,0 l/m² 0,00 h 59 W/m² 28,4 km/h (4 Bft) 97,48 %
03.04.2026 19:00 12,7 °C 12,0 °C 8,2 °C 73 % 1014,0 hPa 0,0 l/m² 0,00 h 12 W/m² 27,1 km/h (4 Bft) 97,81 %
03.04.2026 20:00 12,0 °C 11,2 °C 7,5 °C 78 % 1014,3 hPa 0,0 l/m² 0,00 h 0 W/m² 30,0 km/h (5 Bft) 96,40 %
03.04.2026 21:00 10,9 °C 10,1 °C 6,6 °C 87 % 1014,5 hPa 0,0 l/m² 0,00 h 0 W/m² 29,9 km/h (5 Bft) 97,53 %
03.04.2026 22:00 10,9 °C 10,3 °C 6,7 °C 90 % 1014,3 hPa 0,0 l/m² 0,00 h 0 W/m² 29,3 km/h (5 Bft) 97,45 %
03.04.2026 23:00 11,3 °C 10,6 °C 6,7 °C 90 % 1014,3 hPa 0,0 l/m² 0,00 h 0 W/m² 29,8 km/h (5 Bft) 98,10 %
04.04.2026 00:00 11,4 °C 10,6 °C 6,9 °C 91 % 1014,4 hPa 0,0 l/m² 0,00 h 0 W/m² 21,0 km/h (4 Bft) 96,24 %
04.04.2026 01:00 11,3 °C 10,6 °C 6,8 °C 93 % 1014,8 hPa 0,0 l/m² 0,00 h 0 W/m² 19,2 km/h (3 Bft) 98,43 %
04.04.2026 02:00 11,6 °C 11,0 °C 7,2 °C 94 % 1015,1 hPa 0,0 l/m² 0,00 h 0 W/m² 18,2 km/h (3 Bft) 97,65 %
04.04.2026 03:00 11,7 °C 10,9 °C 7,0 °C 94 % 1015,4 hPa 0,0 l/m² 0,00 h 0 W/m² 17,1 km/h (3 Bft) 97,30 %
04.04.2026 04:00 11,5 °C 10,6 °C 6,7 °C 95 % 1015,9 hPa 0,0 l/m² 0,00 h 0 W/m² 14,5 km/h (3 Bft) 96,29 %
04.04.2026 05:00 11,2 °C 10,6 °C 6,7 °C 96 % 1016,4 hPa 0,0 l/m² 0,00 h 0 W/m² 8,5 km/h (2 Bft) 99,15 %
04.04.2026 06:00 11,1 °C 10,5 °C 6,7 °C 96 % 1016,8 hPa 0,5 l/m² 0,00 h 0 W/m² 6,4 km/h (2 Bft) 96,10 %
04.04.2026 07:00 10,9 °C 10,0 °C 6,1 °C 96 % 1017,6 hPa 0,0 l/m² 0,00 h 10 W/m² 6,6 km/h (2 Bft) 98,07 %
04.04.2026 08:00 10,9 °C 10,6 °C 6,6 °C 96 % 1018,6 hPa 0,0 l/m² 0,00 h 44 W/m² 4,1 km/h (1 Bft) 96,49 %
04.04.2026 09:00 11,5 °C 12,0 °C 7,8 °C 95 % 1019,3 hPa 0,0 l/m² 0,00 h 116 W/m² 6,0 km/h (2 Bft) 95,96 %
04.04.2026 10:00 12,3 °C 12,9 °C 8,7 °C 90 % 1019,9 hPa 0,0 l/m² 0,13 h 193 W/m² 9,9 km/h (2 Bft) 97,95 %
04.04.2026 11:00 12,9 °C 13,4 °C 9,2 °C 81 % 1020,4 hPa 0,0 l/m² 0,03 h 214 W/m² 11,4 km/h (2 Bft) 98,05 %
04.04.2026 12:00 14,2 °C 16,4 °C 12,2 °C 79 % 1020,4 hPa 0,0 l/m² 0,40 h 322 W/m² 14,9 km/h (3 Bft) 97,72 %
04.04.2026 13:00 14,6 °C 16,5 °C 11,6 °C 78 % 1020,4 hPa 0,0 l/m² 0,17 h 286 W/m² 11,8 km/h (2 Bft) 97,29 %
04.04.2026 14:00 16,1 °C 19,1 °C 12,5 °C 67 % 1020,4 hPa 0,0 l/m² 0,40 h 403 W/m² 17,5 km/h (3 Bft) 95,34 %
04.04.2026 15:00 15,3 °C 15,3 °C 11,3 °C 72 % 1020,4 hPa 0,0 l/m² 0,00 h 177 W/m² 16,3 km/h (3 Bft) 99,43 %
04.04.2026 16:00 15,2 °C 15,3 °C 11,3 °C 76 % 1020,0 hPa 0,0 l/m² 0,03 h 176 W/m² 14,7 km/h (3 Bft) 97,31 %
04.04.2026 17:00 15,2 °C 15,5 °C 11,1 °C 78 % 1019,3 hPa 0,0 l/m² 0,13 h 179 W/m² 20,4 km/h (4 Bft) 97,01 %
04.04.2026 18:00 15,5 °C 15,8 °C 11,1 °C 79 % 1018,5 hPa 0,0 l/m² 0,70 h 144 W/m² 16,1 km/h (3 Bft) 98,57 %
04.04.2026 19:00 15,4 °C 14,5 °C 10,5 °C 78 % 1017,5 hPa 0,0 l/m² 0,00 h 32 W/m² 15,1 km/h (3 Bft) 97,16 %
04.04.2026 20:00 14,6 °C 13,5 °C 9,7 °C 80 % 1017,2 hPa 0,0 l/m² 0,00 h 4 W/m² 9,5 km/h (2 Bft) 97,41 %
04.04.2026 21:00 13,6 °C 12,3 °C 8,5 °C 83 % 1016,7 hPa 0,0 l/m² 0,00 h 0 W/m² 10,0 km/h (2 Bft) 99,22 %
04.04.2026 22:00 12,8 °C 11,8 °C 8,0 °C 85 % 1015,9 hPa 0,0 l/m² 0,00 h 0 W/m² 10,8 km/h (2 Bft) 93,80 %
04.04.2026 23:00 12,0 °C 11,0 °C 7,3 °C 87 % 1015,2 hPa 0,0 l/m² 0,00 h 0 W/m² 11,4 km/h (2 Bft) 98,32 %
05.04.2026 00:00 11,6 °C 10,6 °C 7,1 °C 88 % 1014,6 hPa 0,0 l/m² 0,00 h 0 W/m² 11,8 km/h (2 Bft) 97,43 %
05.04.2026 01:00 11,2 °C 10,5 °C 6,7 °C 87 % 1013,9 hPa 0,0 l/m² 0,00 h 0 W/m² 11,4 km/h (2 Bft) 95,11 %
05.04.2026 02:00 11,1 °C 10,3 °C 6,7 °C 86 % 1013,1 hPa 0,0 l/m² 0,00 h 0 W/m² 14,2 km/h (3 Bft) 99,44 %
05.04.2026 03:00 12,5 °C 12,2 °C 8,0 °C 81 % 1011,9 hPa 0,0 l/m² 0,00 h 0 W/m² 22,1 km/h (4 Bft) 96,98 %
05.04.2026 04:00 14,0 °C 13,1 °C 9,0 °C 76 % 1011,4 hPa 0,0 l/m² 0,00 h 0 W/m² 23,8 km/h (4 Bft) 96,06 %
05.04.2026 05:00 15,0 °C 14,0 °C 9,9 °C 74 % 1011,3 hPa 0,0 l/m² 0,00 h 0 W/m² 30,0 km/h (5 Bft) 97,40 %
05.04.2026 06:00 14,5 °C 13,4 °C 9,3 °C 75 % 1011,6 hPa 0,0 l/m² 0,00 h 0 W/m² 26,3 km/h (4 Bft) 96,89 %
05.04.2026 07:00 13,9 °C 12,8 °C 8,9 °C 75 % 1012,3 hPa 0,0 l/m² 0,00 h 15 W/m² 21,2 km/h (4 Bft) 96,66 %
05.04.2026 08:00 13,5 °C 12,8 °C 8,9 °C 77 % 1013,3 hPa 0,0 l/m² 0,00 h 53 W/m² 20,8 km/h (4 Bft) 99,33 %
05.04.2026 09:00 13,4 °C 12,9 °C 8,9 °C 78 % 1013,8 hPa 0,0 l/m² 0,00 h 81 W/m² 26,2 km/h (4 Bft) 95,49 %
05.04.2026 10:00 12,3 °C 12,7 °C 8,4 °C 85 % 1015,1 hPa 0,0 l/m² 0,33 h 207 W/m² 23,6 km/h (4 Bft) 97,29 %
05.04.2026 11:00 12,9 °C 13,7 °C 9,6 °C 75 % 1016,1 hPa 0,0 l/m² 0,43 h 292 W/m² 25,5 km/h (4 Bft) 98,52 %
05.04.2026 12:00 13,7 °C 15,3 °C 11,1 °C 69 % 1016,9 hPa 0,0 l/m² 0,80 h 406 W/m² 24,8 km/h (4 Bft) 96,79 %
05.04.2026 13:00 13,7 °C 14,3 °C 10,4 °C 68 % 1017,4 hPa 0,0 l/m² 0,13 h 277 W/m² 24,1 km/h (4 Bft) 96,31 %
05.04.2026 14:00 13,2 °C 13,5 °C 8,7 °C 73 % 1018,1 hPa 0,0 l/m² 0,20 h 263 W/m² 21,4 km/h (4 Bft) 97,35 %
05.04.2026 15:00 12,4 °C 13,1 °C 8,6 °C 75 % 1018,5 hPa 0,0 l/m² 0,20 h 230 W/m² 28,2 km/h (4 Bft) 96,33 %
05.04.2026 16:00 14,1 °C 16,9 °C 10,3 °C 69 % 1018,6 hPa 0,0 l/m² 0,70 h 438 W/m² 29,5 km/h (5 Bft) 97,39 %
05.04.2026 17:00 12,3 °C 14,0 °C 7,8 °C 83 % 1019,2 hPa 0,5 l/m² 0,63 h 293 W/m² 15,5 km/h (3 Bft) 96,79 %
05.04.2026 18:00 12,3 °C 12,6 °C 8,2 °C 76 % 1019,8 hPa 0,0 l/m² 0,40 h 119 W/m² 18,1 km/h (3 Bft) 98,66 %
05.04.2026 19:00 11,0 °C 10,2 °C 6,7 °C 79 % 1020,5 hPa 0,0 l/m² 0,00 h 20 W/m² 12,9 km/h (3 Bft) 96,98 %
05.04.2026 20:00 10,8 °C 10,0 °C 6,7 °C 77 % 1021,2 hPa 0,0 l/m² 0,00 h 0 W/m² 13,8 km/h (3 Bft) 98,07 %
05.04.2026 21:00 10,5 °C 9,8 °C 6,2 °C 75 % 1022,1 hPa 0,0 l/m² 0,00 h 0 W/m² 11,8 km/h (2 Bft) 94,07 %
05.04.2026 22:00 10,3 °C 9,3 °C 5,9 °C 75 % 1023,0 hPa 0,0 l/m² 0,00 h 0 W/m² 11,0 km/h (2 Bft) 98,32 %
05.04.2026 23:00 9,5 °C 8,2 °C 4,9 °C 78 % 1023,7 hPa 0,0 l/m² 0,00 h 0 W/m² 5,8 km/h (2 Bft) 97,57 %
Min-Datum _ 01.04.26 01.04.26 31.03.26 01.04.26 05.04.26 - - - 30.03.26 30.03.26
_ Min-Zeit 07:15 06:10 05:28 17:02 05:12 - - - 21:56 11:20
Minimum _ 0,6 °C 0,0 °C -2,8 °C 48 % 1011,1 hPa - - - 0,0 km/h (0 Bft) 37,50 %
Max-Datum _ 04.04.26 01.04.26 04.04.26 30.03.26 31.03.26 30.03.26 30.03.26 30.03.26 03.04.26 30.03.26
_ Max-Zeit 14:24 14:20 12:22 02:58 12:20 04:00 07:56 13:56 21:10 00:44
Maximum _ 17,2 °C 25,6 °C 17,8 °C 96 % 1028,8 hPa 2,4 l/m² 0,03 h 940 W/m² 67,6 km/h
S-SO (8 Bft)
100,00 %
Durchschnitt _ 9,0 °C 9,3 °C 5,0 °C 82 % 1020,0 hPa #10,8 l/m² #25:29 h 219 W/m² 12,7 km/h (3 Bft) 97,42 %
© 2026 W. Hausmann